Impacts TAF Board
For situational awareness. Not to be used for flight planning purposes.
IDs:

KATL - Atlanta/Hartsfield-J, GA, US

Issued at 1945 UTC 20 Jun 2019
Updated at 2134 UTC 20 Jun 2019
Potential Impact None Slight Moderate High
Time<<21/10Z 21/11Z 21/12Z 21/13Z 21/14Z 21/15Z 21/16Z 21/17Z 21/18Z 21/19Z 21/20Z 21/21Z 21/22Z>>
Type PRVL PRVL PRVL PRVL PRVL PRVL PRVL PRVL PRVL PRVL PRVL
  [PRB30]  
PRVL
  [PRB30]  
PRVL
  [PRB30]  
VIS >6 >6 >6 >6 >6 >6 >6 >6 >6 >6 >6
  [6.21]  
>6
  [6.21]  
>6
  [6.21]  
CIG -- -- -- -- -- -- -- -- -- -- --
  [35]  
--
  [35]  
--
  [35]  
Cover SCT SCT SCT SCT SCT SCT FEW FEW FEW FEW FEW
  [BKN]  
FEW
  [BKN]  
FEW
  [BKN]  
FltCat VFR VFR VFR VFR VFR VFR VFR VFR VFR VFR VFR
  [VFR]  
VFR
  [VFR]  
VFR
  [VFR]  
WX -- -- -- -- -- -- -- -- -- -- --
  [TSRA]  
--
  [TSRA]  
--
  [TSRA]  
WDir 270 270 270 270 270 290 290 290 290 290 290
[290]
290
[290]
290
[290]
WSpd 8 8 8 8 8 8 7 7 7 7 7
  [7]  
7
  [7]  
7
  [7]  
WGst -- -- -- -- -- -- -- -- -- -- --
  [--]  
--
  [--]  
--
  [--]  
Raw TAF
KATL 201945Z 2020/2124 27010G18KT P6SM VCSH SCT035 SCT070
  TEMPO 2020/2022 5SM -SHRA BKN030 BKN050
  FM210000 25013KT P6SM VCSH SCT040
  FM210300 27008KT P6SM SCT250
  FM211500 29008KT P6SM FEW030 SCT250
  FM211600 29007KT P6SM FEW050
  PROB30 2120/2123 P6SM TSRA BKN035CB


METAR Board
Radar Display
Forecast Discussion
For situational awareness. Not to be used for flight planning purposes.